ENGLEBRIGHT (USACE) (ENG)

Elevation: 551' · YUBA R basin · Operator: US Army Corps of Engineers

Provisional data, subject to change.
Query executed Thursday at 10:33:19   clock

Select a sensor type for a plot of data.
Note: Reservoir Flows are daily averages.

Earlier

Date RES ELE    STORAGE    RES CHG    OUTFLOW    INFLOW    PPT INC   
 FEET   AF   AF   CFS   CFS   INCHES  
05/31/2016 521.71 65751 271 -- 2769 0.00
06/01/2016 521.24 65387 -364 -- 255 0.00
06/02/2016 520.05 64471 -916 -- 1845 0.00
06/03/2016 519.52 64066 -405 -- 2130 0.00
06/04/2016 518.41 63225 -841 -- 1827 0.00
06/05/2016 517.55 62579 -646 -- 1815 0.00
06/06/2016 518.37 63195 616 -- 2376 0.00
06/07/2016 519.91 64364 1169 -- 2576 0.00
06/08/2016 520.41 64747 383 -- 2156 0.00
06/09/2016 520.57 64870 123 -- 2024 0.00
06/10/2016 521.25 65394 524 -- -- 0.00
06/11/2016 520.27 64639 -755 -- -- 0.00
06/12/2016 518.50 63293 -1346 -- 1719 0.00
06/13/2016 517.43 62489 -804 -- 1983 0.00
06/14/2016 517.62 62632 143 -- 2448 0.00
06/15/2016 517.98 62901 269 -- 2521 0.00
06/16/2016 517.92 62856 -45 -- 2362 0.00
06/17/2016 518.61 63376 520 -- 2650 0.00
06/18/2016 519.01 63679 303 -- 2541 0.00
06/19/2016 519.27 63876 197 -- 2481 0.00
06/20/2016 519.17 63800 -76 -- 1379 0.00
06/21/2016 519.10 63747 -53 -- 2374 0.00
06/22/2016 518.35 63180 -567 -- 2152 0.00
06/23/2016 519.35 63937 757 -- 2824 0.00
06/24/2016 519.38 63960 23 -- 2464 0.00
06/25/2016 518.86 63565 -395 -- 2282 0.00
06/26/2016 517.71 62699 -866 -- 2029 0.00
06/27/2016 519.06 63717 1018 -- 2961 0.00
06/28/2016 520.20 64586 869 -- 2890 0.00
06/29/2016 519.63 64150 -436 -- -- 0.00
06/30/2016 -- -- -- -- -- --

Later | Latest

Warning! This data is preliminary and subject to revision.

Show ENG Map | Plot ENG Data | 1 Month ENG Data | Real-Time ENG Data | ENG Info